Time;durP1;ratioP1;P1;durP2;ratioP2;P2;SDS_P1;SDS_P2;PMS_P1;PMS_P2;Temp;Humidity;BMP_temperature;BMP_pressure;BME280_temperature;BME280_humidity;BME280_pressure;Samples;Min_cycle;Max_cycle;Signal;HPM_P1;HPM_P2
2023/08/01 00:01:44;;;;;;;3.08;2.17;;;;;;;;;;5073327;28;20040;-58
2023/08/01 00:04:10;;;;;;;3.55;2.47;;;;;;;;;;5072910;28;20461;-58
2023/08/01 00:06:36;;;;;;;3.95;2.33;;;;;;;;;;5072999;28;20484;-58
2023/08/01 00:09:02;;;;;;;3.50;2.58;;;;;;;;;;5072936;28;20077;-58
2023/08/01 00:11:28;;;;;;;3.78;2.28;;;;;;;;;;5073147;28;20025;-58
2023/08/01 00:13:54;;;;;;;4.93;2.70;;;;;;;;;;5073176;28;20085;-59
2023/08/01 00:16:20;;;;;;;3.88;2.15;;;;;;;;;;5073109;28;20025;-58
2023/08/01 00:18:46;;;;;;;3.33;2.15;;;;;;;;;;5073912;28;20024;-58
2023/08/01 00:21:12;;;;;;;3.63;2.42;;;;;;;;;;5073070;28;20056;-58
2023/08/01 00:23:38;;;;;;;3.40;2.17;;;;;;;;;;5073514;28;20122;-58
2023/08/01 00:26:04;;;;;;;3.58;2.05;;;;;;;;;;5073034;28;20027;-58
2023/08/01 00:28:31;;;;;;;3.67;2.20;;;;;;;;;;5074361;28;20020;-58
2023/08/01 00:31:04;;;;;;;4.57;2.22;;;;;;;;;;5077135;28;20013;-59
2023/08/01 00:33:30;;;;;;;4.00;2.63;;;;;;;;;;5059392;28;20028;-58
2023/08/01 00:35:56;;;;;;;4.13;2.60;;;;;;;;;;5076619;28;20074;-58
2023/08/01 00:38:22;;;;;;;5.07;2.72;;;;;;;;;;5077310;28;20103;-58
2023/08/01 00:40:48;;;;;;;3.00;2.35;;;;;;;;;;5076442;28;20055;-59
2023/08/01 00:43:14;;;;;;;4.35;2.50;;;;;;;;;;5076942;28;20040;-58
2023/08/01 00:45:39;;;;;;;3.10;2.00;;;;;;;;;;5077138;28;20089;-58
2023/08/01 00:48:06;;;;;;;3.15;2.10;;;;;;;;;;5077041;28;20412;-58
2023/08/01 00:50:32;;;;;;;4.22;2.60;;;;;;;;;;5077341;28;20320;-58
2023/08/01 00:52:58;;;;;;;2.90;1.88;;;;;;;;;;5077026;28;20056;-58
2023/08/01 00:55:24;;;;;;;4.97;2.50;;;;;;;;;;5076418;28;20024;-58
2023/08/01 00:57:50;;;;;;;5.97;3.90;;;;;;;;;;5076369;28;20377;-58
2023/08/01 01:00:16;;;;;;;3.67;2.50;;;;;;;;;;5076913;28;20046;-58
2023/08/01 01:02:42;;;;;;;2.97;2.05;;;;;;;;;;5076110;28;20142;-58
2023/08/01 01:05:08;;;;;;;5.97;2.38;;;;;;;;;;5076515;28;20111;-58
2023/08/01 01:07:35;;;;;;;3.33;2.08;;;;;;;;;;5076271;28;20024;-58
2023/08/01 01:10:01;;;;;;;4.50;2.33;;;;;;;;;;5076267;28;20060;-59
2023/08/01 01:12:27;;;;;;;4.13;2.47;;;;;;;;;;5076135;28;20524;-58
2023/08/01 01:14:53;;;;;;;2.90;1.98;;;;;;;;;;5076676;28;20028;-58
2023/08/01 01:17:19;;;;;;;3.83;1.60;;;;;;;;;;5076068;28;20017;-58
2023/08/01 01:19:45;;;;;;;3.58;2.22;;;;;;;;;;5076078;28;20031;-58
2023/08/01 01:22:11;;;;;;;3.55;2.10;;;;;;;;;;5076532;28;20021;-59
2023/08/01 01:24:37;;;;;;;3.75;2.00;;;;;;;;;;5076434;28;20446;-58
2023/08/01 01:27:05;;;;;;;2.63;1.95;;;;;;;;;;5076139;28;20020;-58
2023/08/01 01:29:31;;;;;;;4.05;2.22;;;;;;;;;;5076516;28;20082;-58
2023/08/01 01:31:58;;;;;;;3.33;2.40;;;;;;;;;;5075517;28;20474;-59
2023/08/01 01:34:24;;;;;;;3.33;2.22;;;;;;;;;;5075779;28;20052;-58
2023/08/01 01:36:50;;;;;;;4.43;2.47;;;;;;;;;;5075337;28;20094;-59
2023/08/01 01:39:16;;;;;;;5.82;2.42;;;;;;;;;;5075650;28;20033;-58
2023/08/01 01:41:42;;;;;;;4.20;2.63;;;;;;;;;;5074457;28;20075;-58
2023/08/01 01:44:07;;;;;;;4.00;2.03;;;;;;;;;;5075501;28;20064;-59
2023/08/01 01:46:33;;;;;;;4.15;2.38;;;;;;;;;;5075337;28;20028;-59
2023/08/01 01:48:59;;;;;;;3.20;2.33;;;;;;;;;;5076360;28;20027;-59
2023/08/01 01:51:27;;;;;;;2.90;2.17;;;;;;;;;;5075468;28;20518;-59
2023/08/01 01:53:53;;;;;;;3.38;2.45;;;;;;;;;;5075504;28;20085;-58
2023/08/01 01:56:19;;;;;;;4.05;2.30;;;;;;;;;;5075907;28;20029;-58
2023/08/01 01:58:44;;;;;;;2.95;2.22;;;;;;;;;;5076211;28;20027;-59
2023/08/01 02:01:10;;;;;;;5.07;2.38;;;;;;;;;;5075807;28;20025;-59
2023/08/01 02:03:36;;;;;;;3.55;2.22;;;;;;;;;;5075952;28;20358;-59
2023/08/01 02:06:03;;;;;;;4.15;2.42;;;;;;;;;;5075975;28;20454;-59
2023/08/01 02:08:29;;;;;;;3.58;1.90;;;;;;;;;;5075189;28;20021;-59
2023/08/01 02:10:57;;;;;;;3.05;2.05;;;;;;;;;;5075371;28;20362;-59
2023/08/01 02:13:23;;;;;;;3.47;2.60;;;;;;;;;;5075052;28;20470;-59
2023/08/01 02:15:49;;;;;;;3.75;2.63;;;;;;;;;;5074983;28;20032;-59
2023/08/01 02:18:15;;;;;;;4.75;2.78;;;;;;;;;;5075713;28;20048;-59
2023/08/01 02:20:41;;;;;;;3.70;2.17;;;;;;;;;;5075698;28;20016;-58
2023/08/01 02:23:07;;;;;;;3.42;2.35;;;;;;;;;;5075546;28;20369;-59
2023/08/01 02:25:38;;;;;;;3.67;2.58;;;;;;;;;;5075572;28;20029;-59
2023/08/01 02:28:04;;;;;;;;;;;;;;;;;;5076032;28;20443;-59
2023/08/01 02:30:30;;;;;;;3.30;2.30;;;;;;;;;;5075465;28;19966;-59
2023/08/01 02:32:56;;;;;;;3.53;2.53;;;;;;;;;;5074367;28;20332;-59
2023/08/01 02:35:22;;;;;;;2.90;2.10;;;;;;;;;;5074268;28;20027;-59
2023/08/01 02:37:48;;;;;;;3.85;2.78;;;;;;;;;;5075153;28;20040;-59
2023/08/01 02:40:14;;;;;;;5.70;2.78;;;;;;;;;;5074533;28;20100;-59
2023/08/01 02:42:39;;;;;;;3.90;2.08;;;;;;;;;;5074500;28;20028;-59
2023/08/01 02:45:06;;;;;;;3.50;2.22;;;;;;;;;;5074318;28;20024;-58
2023/08/01 02:47:32;;;;;;;3.97;2.70;;;;;;;;;;5074391;28;20047;-59
2023/08/01 02:49:57;;;;;;;3.25;2.10;;;;;;;;;;5074914;28;20020;-59
2023/08/01 02:52:23;;;;;;;5.40;2.60;;;;;;;;;;5074652;28;20020;-59
2023/08/01 02:54:49;;;;;;;5.57;2.38;;;;;;;;;;5073912;28;20063;-59
2023/08/01 02:57:15;;;;;;;3.33;2.47;;;;;;;;;;5074702;28;20021;-58
2023/08/01 02:59:41;;;;;;;4.32;2.67;;;;;;;;;;5074617;28;20013;-59
2023/08/01 03:02:10;;;;;;;3.05;2.47;;;;;;;;;;5074435;28;20086;-58
2023/08/01 03:04:36;;;;;;;2.78;2.15;;;;;;;;;;5074023;28;20462;-59
2023/08/01 03:07:02;;;;;;;4.40;2.50;;;;;;;;;;5073778;28;20032;-59
2023/08/01 03:09:28;;;;;;;5.10;2.78;;;;;;;;;;5074162;28;20028;-59
2023/08/01 03:11:54;;;;;;;3.05;2.22;;;;;;;;;;5073976;28;20336;-58
2023/08/01 03:14:20;;;;;;;3.03;2.38;;;;;;;;;;5073850;28;20027;-58
2023/08/01 03:16:46;;;;;;;3.53;2.47;;;;;;;;;;5073567;28;20029;-58
2023/08/01 03:19:12;;;;;;;4.38;2.63;;;;;;;;;;5074402;28;20026;-59
2023/08/01 03:21:39;;;;;;;4.85;2.85;;;;;;;;;;5073811;28;20431;-59
2023/08/01 03:24:08;;;;;;;4.28;2.30;;;;;;;;;;5074217;28;20119;-59
2023/08/01 03:26:34;;;;;;;2.92;1.92;;;;;;;;;;5073718;28;20016;-59
2023/08/01 03:29:00;;;;;;;3.55;2.33;;;;;;;;;;5073709;28;20127;-59
2023/08/01 03:31:26;;;;;;;2.90;2.08;;;;;;;;;;5073542;28;20048;-58
2023/08/01 03:33:52;;;;;;;3.72;2.28;;;;;;;;;;5073349;28;20078;-59
2023/08/01 03:36:18;;;;;;;4.80;2.60;;;;;;;;;;5073908;28;20105;-59
2023/08/01 03:38:44;;;;;;;3.70;2.60;;;;;;;;;;5073580;28;20028;-58
2023/08/01 03:41:10;;;;;;;4.13;1.83;;;;;;;;;;5073783;28;20036;-58
2023/08/01 03:43:36;;;;;;;2.97;2.20;;;;;;;;;;5073515;28;20168;-58
2023/08/01 03:46:02;;;;;;;3.72;2.22;;;;;;;;;;5073996;28;20044;-58
2023/08/01 03:48:28;;;;;;;2.83;1.90;;;;;;;;;;5073615;28;20025;-58
2023/08/01 03:50:54;;;;;;;2.80;1.95;;;;;;;;;;5074389;28;20347;-58
2023/08/01 03:53:20;;;;;;;4.63;2.20;;;;;;;;;;5074012;28;20190;-58
2023/08/01 03:55:48;;;;;;;5.38;2.50;;;;;;;;;;5074029;28;20068;-58
2023/08/01 03:58:14;;;;;;;3.53;2.00;;;;;;;;;;5073435;28;20021;-58
2023/08/01 04:00:40;;;;;;;4.25;2.20;;;;;;;;;;5074030;28;20347;-58
2023/08/01 04:03:06;;;;;;;2.67;2.00;;;;;;;;;;5073513;28;20020;-58
2023/08/01 04:05:32;;;;;;;5.13;2.00;;;;;;;;;;5078105;28;20074;-58
2023/08/01 04:07:58;;;;;;;4.10;2.42;;;;;;;;;;5077282;28;20417;-58
2023/08/01 04:10:24;;;;;;;3.15;2.30;;;;;;;;;;5077485;28;20066;-58
2023/08/01 04:12:50;;;;;;;2.80;1.80;;;;;;;;;;5077762;28;20024;-58
2023/08/01 04:15:16;;;;;;;5.88;2.03;;;;;;;;;;5077111;28;20031;-58
2023/08/01 04:17:42;;;;;;;3.55;2.00;;;;;;;;;;5077389;28;20024;-58
2023/08/01 04:20:08;;;;;;;5.65;2.65;;;;;;;;;;5077870;28;20020;-58
2023/08/01 04:22:34;;;;;;;2.85;1.80;;;;;;;;;;5077223;28;20031;-58
2023/08/01 04:25:01;;;;;;;4.47;2.90;;;;;;;;;;5077170;28;20024;-58
2023/08/01 04:27:27;;;;;;;4.50;2.20;;;;;;;;;;5077085;28;20060;-58
2023/08/01 04:29:54;;;;;;;3.35;2.47;;;;;;;;;;5077907;28;20060;-58
2023/08/01 04:32:20;;;;;;;7.72;2.72;;;;;;;;;;5077732;28;20023;-59
2023/08/01 04:34:46;;;;;;;4.15;2.28;;;;;;;;;;5076990;28;20142;-58
2023/08/01 04:37:12;;;;;;;2.95;2.00;;;;;;;;;;5077104;28;20064;-58
2023/08/01 04:39:38;;;;;;;5.63;2.25;;;;;;;;;;5077233;28;20021;-59
2023/08/01 04:42:04;;;;;;;3.78;2.58;;;;;;;;;;5076852;28;20020;-58
2023/08/01 04:44:30;;;;;;;3.38;1.77;;;;;;;;;;5076998;28;20024;-58
2023/08/01 04:46:59;;;;;;;4.05;2.35;;;;;;;;;;5076580;28;20021;-58
2023/08/01 04:49:25;;;;;;;5.13;2.55;;;;;;;;;;5077209;28;20027;-59
2023/08/01 04:51:51;;;;;;;4.28;1.85;;;;;;;;;;5076691;28;20028;-58
2023/08/01 04:54:17;;;;;;;3.50;1.92;;;;;;;;;;5077329;28;20040;-58
2023/08/01 04:56:43;;;;;;;4.05;2.15;;;;;;;;;;5076558;28;20458;-59
2023/08/01 04:59:09;;;;;;;3.28;2.05;;;;;;;;;;5076787;28;20024;-59
2023/08/01 05:01:35;;;;;;;3.60;2.47;;;;;;;;;;5077034;28;20024;-59
2023/08/01 05:04:01;;;;;;;3.83;1.50;;;;;;;;;;5076350;28;20033;-59
2023/08/01 05:06:30;;;;;;;3.47;2.05;;;;;;;;;;5076618;28;20016;-59
2023/08/01 05:08:56;;;;;;;6.05;1.92;;;;;;;;;;5076956;28;20090;-59
2023/08/01 05:11:22;;;;;;;3.45;2.10;;;;;;;;;;5076327;28;20017;-59
2023/08/01 05:13:48;;;;;;;4.47;3.13;;;;;;;;;;5076221;28;20346;-59
2023/08/01 05:16:14;;;;;;;4.72;2.38;;;;;;;;;;5075464;28;20021;-59
2023/08/01 05:18:39;;;;;;;3.92;1.95;;;;;;;;;;5076243;28;20052;-59
2023/08/01 05:21:05;;;;;;;3.72;2.10;;;;;;;;;;5076951;28;20340;-59
2023/08/01 05:23:31;;;;;;;4.53;2.05;;;;;;;;;;5076272;28;20029;-59
2023/08/01 05:25:57;;;;;;;3.10;1.70;;;;;;;;;;5075958;28;20484;-59
2023/08/01 05:28:23;;;;;;;5.05;2.42;;;;;;;;;;5076129;28;20348;-59
2023/08/01 05:30:49;;;;;;;3.50;2.33;;;;;;;;;;5076522;28;20523;-59
2023/08/01 05:33:15;;;;;;;2.88;1.58;;;;;;;;;;5075849;28;20035;-59
2023/08/01 05:35:41;;;;;;;4.32;2.67;;;;;;;;;;5075966;28;20025;-59
2023/08/01 05:38:07;;;;;;;4.75;2.58;;;;;;;;;;5076063;28;20111;-59
2023/08/01 05:40:33;;;;;;;4.22;2.13;;;;;;;;;;5075835;28;20052;-59
2023/08/01 05:42:59;;;;;;;3.97;2.17;;;;;;;;;;5075489;28;20024;-59
2023/08/01 05:45:25;;;;;;;3.65;2.35;;;;;;;;;;5075575;28;20116;-59
2023/08/01 05:47:51;;;;;;;5.47;3.28;;;;;;;;;;5076317;28;20028;-59
2023/08/01 05:50:16;;;;;;;3.08;2.22;;;;;;;;;;5076452;28;20016;-59
2023/08/01 05:52:42;;;;;;;3.42;2.38;;;;;;;;;;5075579;28;20020;-59
2023/08/01 05:55:08;;;;;;;3.47;2.65;;;;;;;;;;5075542;28;20104;-59
2023/08/01 05:57:34;;;;;;;3.95;2.17;;;;;;;;;;5075960;28;20020;-59
2023/08/01 06:00:00;;;;;;;4.32;2.50;;;;;;;;;;5076237;28;20027;-59
2023/08/01 06:02:27;;;;;;;4.65;2.42;;;;;;;;;;5075535;28;20357;-59
2023/08/01 06:04:53;;;;;;;4.05;2.83;;;;;;;;;;5075674;28;20033;-59
2023/08/01 06:07:22;;;;;;;4.32;2.78;;;;;;;;;;5075593;28;20023;-59
2023/08/01 06:09:51;;;;;;;6.25;3.28;;;;;;;;;;5075434;28;20032;-59
2023/08/01 06:12:17;;;;;;;5.53;2.13;;;;;;;;;;5074931;28;20032;-59
2023/08/01 06:14:43;;;;;;;6.75;2.67;;;;;;;;;;5075510;28;20028;-59
2023/08/01 06:17:09;;;;;;;4.03;2.63;;;;;;;;;;5075064;28;20484;-59
2023/08/01 06:19:35;;;;;;;3.22;2.58;;;;;;;;;;5074957;28;20039;-59
2023/08/01 06:22:01;;;;;;;4.57;2.47;;;;;;;;;;5075131;28;20027;-59
2023/08/01 06:24:27;;;;;;;3.40;2.45;;;;;;;;;;5074826;28;20127;-59
2023/08/01 06:26:53;;;;;;;7.97;2.72;;;;;;;;;;5074647;28;20113;-59
2023/08/01 06:29:18;;;;;;;4.38;2.33;;;;;;;;;;5074979;28;20125;-59
2023/08/01 06:31:44;;;;;;;2.97;1.98;;;;;;;;;;5074733;28;20458;-59
2023/08/01 06:34:10;;;;;;;5.10;2.33;;;;;;;;;;5075315;28;20082;-59
2023/08/01 06:36:36;;;;;;;4.75;2.70;;;;;;;;;;5074720;28;20045;-59
2023/08/01 06:39:03;;;;;;;2.80;1.88;;;;;;;;;;5074605;28;20031;-59
2023/08/01 06:41:29;;;;;;;4.57;2.40;;;;;;;;;;5074997;28;20063;-59
2023/08/01 06:43:55;;;;;;;3.70;2.20;;;;;;;;;;5074976;28;20552;-59
2023/08/01 06:46:21;;;;;;;5.15;3.05;;;;;;;;;;5074178;28;20060;-59
2023/08/01 06:48:47;;;;;;;3.75;2.92;;;;;;;;;;5074423;28;20024;-59
2023/08/01 06:51:13;;;;;;;4.28;2.78;;;;;;;;;;5074379;28;20027;-59
2023/08/01 06:53:39;;;;;;;4.80;3.17;;;;;;;;;;5075115;28;20028;-59
2023/08/01 06:56:04;;;;;;;7.70;3.05;;;;;;;;;;5074231;28;20478;-59
2023/08/01 06:58:30;;;;;;;4.25;3.10;;;;;;;;;;5074180;28;20025;-60
2023/08/01 07:00:56;;;;;;;4.55;2.72;;;;;;;;;;5074397;28;20020;-59
2023/08/01 07:03:22;;;;;;;4.80;3.13;;;;;;;;;;5073830;28;20463;-60
2023/08/01 07:05:48;;;;;;;5.57;2.88;;;;;;;;;;5074125;28;20036;-59
2023/08/01 07:08:14;;;;;;;5.15;3.45;;;;;;;;;;5074031;28;20020;-59
2023/08/01 07:10:40;;;;;;;5.03;3.13;;;;;;;;;;5073660;28;20378;-59
2023/08/01 07:13:06;;;;;;;4.65;3.25;;;;;;;;;;5073849;28;20085;-59
2023/08/01 07:15:32;;;;;;;3.67;2.53;;;;;;;;;;5073805;28;20025;-59
2023/08/01 07:17:58;;;;;;;4.18;2.90;;;;;;;;;;5074548;28;20031;-59
2023/08/01 07:20:24;;;;;;;4.70;3.05;;;;;;;;;;5074406;28;20435;-59
2023/08/01 07:22:50;;;;;;;4.55;3.00;;;;;;;;;;5074406;28;20047;-60
2023/08/01 07:25:17;;;;;;;5.63;3.55;;;;;;;;;;5073682;28;20033;-60
2023/08/01 07:27:43;;;;;;;4.90;3.25;;;;;;;;;;5074097;28;20120;-59
2023/08/01 07:30:12;;;;;;;4.82;3.03;;;;;;;;;;5074207;28;20365;-61
2023/08/01 07:32:38;;;;;;;4.10;2.70;;;;;;;;;;5073714;28;20020;-59
2023/08/01 07:35:05;;;;;;;5.50;2.85;;;;;;;;;;5073721;28;20103;-60
2023/08/01 07:37:31;;;;;;;3.95;3.08;;;;;;;;;;5073151;28;20044;-60
2023/08/01 07:39:57;;;;;;;4.38;2.97;;;;;;;;;;5073524;28;20021;-59
2023/08/01 07:42:23;;;;;;;4.75;3.03;;;;;;;;;;5073875;28;20458;-59
2023/08/01 07:44:49;;;;;;;7.50;2.90;;;;;;;;;;5073498;28;20370;-59
2023/08/01 07:47:15;;;;;;;7.05;3.65;;;;;;;;;;5073544;28;20134;-59
2023/08/01 07:49:41;;;;;;;5.40;2.55;;;;;;;;;;5074129;28;20032;-59
2023/08/01 07:52:07;;;;;;;3.72;2.70;;;;;;;;;;5073352;28;20028;-59
2023/08/01 07:54:33;;;;;;;4.45;2.92;;;;;;;;;;5074011;28;20366;-59
2023/08/01 07:56:59;;;;;;;3.75;2.28;;;;;;;;;;5073993;28;20016;-59
2023/08/01 07:59:25;;;;;;;2.88;2.13;;;;;;;;;;5073393;28;20025;-59
2023/08/01 08:01:52;;;;;;;3.28;2.38;;;;;;;;;;5073447;28;20070;-59
2023/08/01 08:04:18;;;;;;;3.42;2.40;;;;;;;;;;5073177;28;20474;-59
2023/08/01 08:06:44;;;;;;;3.05;2.20;;;;;;;;;;5073491;28;20039;-59
2023/08/01 08:09:10;;;;;;;3.70;1.85;;;;;;;;;;5073985;28;20024;-59
2023/08/01 08:11:36;;;;;;;2.60;2.08;;;;;;;;;;5072977;28;20017;-60
2023/08/01 08:14:02;;;;;;;3.42;2.25;;;;;;;;;;5074004;28;20025;-60
2023/08/01 08:16:28;;;;;;;3.80;2.03;;;;;;;;;;5073659;28;20060;-60
2023/08/01 08:18:54;;;;;;;2.78;1.73;;;;;;;;;;5073265;28;20473;-60
2023/08/01 08:21:20;;;;;;;3.40;1.98;;;;;;;;;;5073197;28;20024;-61
2023/08/01 08:23:46;;;;;;;3.38;2.08;;;;;;;;;;5072707;28;20423;-60
2023/08/01 08:26:12;;;;;;;3.05;1.80;;;;;;;;;;5073110;28;20025;-60
2023/08/01 08:28:39;;;;;;;3.15;1.98;;;;;;;;;;5055988;28;20021;-60
2023/08/01 08:31:05;;;;;;;4.03;2.60;;;;;;;;;;5073184;28;20020;-60
2023/08/01 08:33:31;;;;;;;7.35;2.38;;;;;;;;;;5073667;28;20442;-59
2023/08/01 08:35:57;;;;;;;4.05;2.17;;;;;;;;;;5072825;28;20057;-59
2023/08/01 08:38:23;;;;;;;5.47;2.30;;;;;;;;;;5073646;28;20017;-59
2023/08/01 08:41:08;;;;;;;4.00;2.67;;;;;;;;;;5073280;28;20023;-59
2023/08/01 08:43:34;;;;;;;4.00;2.72;;;;;;;;;;5073486;28;20040;-59
2023/08/01 08:46:01;;;;;;;4.07;2.08;;;;;;;;;;5072963;28;20500;-59
2023/08/01 08:48:27;;;;;;;4.13;2.35;;;;;;;;;;5073511;28;20052;-59
2023/08/01 08:50:53;;;;;;;4.05;2.35;;;;;;;;;;5075820;28;20476;-59
2023/08/01 08:53:19;;;;;;;4.88;2.78;;;;;;;;;;5076381;28;20098;-59
2023/08/01 08:55:45;;;;;;;2.13;1.42;;;;;;;;;;5076528;28;20067;-59
2023/08/01 08:58:11;;;;;;;4.60;2.38;;;;;;;;;;5076544;28;20027;-59
2023/08/01 09:00:37;;;;;;;4.20;2.22;;;;;;;;;;5077294;28;20017;-59
2023/08/01 09:03:07;;;;;;;3.45;2.40;;;;;;;;;;5076452;28;20024;-59
2023/08/01 09:05:35;;;;;;;5.50;2.25;;;;;;;;;;5076689;28;20500;-60
2023/08/01 09:08:05;;;;;;;2.85;2.03;;;;;;;;;;5076428;28;20028;-60
2023/08/01 09:10:32;;;;;;;4.70;2.33;;;;;;;;;;5077158;28;20037;-60
2023/08/01 09:12:58;;;;;;;2.75;1.50;;;;;;;;;;5077106;28;20426;-60
2023/08/01 09:15:26;;;;;;;3.30;1.73;;;;;;;;;;5076539;28;20028;-60
2023/08/01 09:17:52;;;;;;;3.35;1.58;;;;;;;;;;5076237;28;20021;-60
2023/08/01 09:20:18;;;;;;;2.75;1.60;;;;;;;;;;5076535;28;20028;-61
2023/08/01 09:22:45;;;;;;;2.95;1.63;;;;;;;;;;5076619;28;20024;-60
2023/08/01 09:25:12;;;;;;;2.42;1.45;;;;;;;;;;5076449;28;20416;-60
2023/08/01 09:27:38;;;;;;;2.45;1.27;;;;;;;;;;5075855;28;20382;-60
2023/08/01 09:30:13;;;;;;;2.50;1.38;;;;;;;;;;5076434;28;20017;-60
2023/08/01 09:32:39;;;;;;;2.58;1.33;;;;;;;;;;5076837;28;20099;-60
2023/08/01 09:35:05;;;;;;;2.30;1.48;;;;;;;;;;5075898;28;20056;-60
2023/08/01 09:37:40;;;;;;;2.70;1.40;;;;;;;;;;5075906;28;20082;-60
2023/08/01 09:40:07;;;;;;;2.00;1.13;;;;;;;;;;5075762;28;20016;-60
2023/08/01 09:42:39;;;;;;;2.92;1.30;;;;;;;;;;5075845;28;20025;-60
2023/08/01 09:45:15;;;;;;;2.28;1.20;;;;;;;;;;5075596;28;20082;-60
2023/08/01 09:47:45;;;;;;;2.20;1.10;;;;;;;;;;5075299;28;20531;-60
2023/08/01 09:50:13;;;;;;;2.08;1.00;;;;;;;;;;5075339;28;20028;-60
2023/08/01 09:52:39;;;;;;;1.92;1.02;;;;;;;;;;5076015;28;20029;-60
2023/08/01 09:55:05;;;;;;;2.10;0.70;;;;;;;;;;5075526;28;20046;-60
2023/08/01 09:57:31;;;;;;;4.55;1.30;;;;;;;;;;5075782;28;20020;-60
2023/08/01 09:59:58;;;;;;;1.77;0.80;;;;;;;;;;5075928;28;20097;-60
2023/08/01 10:02:29;;;;;;;1.83;0.90;;;;;;;;;;5074627;28;20032;-60
2023/08/01 10:04:57;;;;;;;3.33;1.08;;;;;;;;;;5075834;28;20036;-60
2023/08/01 10:07:24;;;;;;;1.73;0.63;;;;;;;;;;5075251;28;20378;-60
2023/08/01 10:09:50;;;;;;;1.30;0.63;;;;;;;;;;5075815;28;20024;-60
2023/08/01 10:12:18;;;;;;;1.08;0.50;;;;;;;;;;5075088;28;20021;-60
2023/08/01 10:14:44;;;;;;;1.15;0.52;;;;;;;;;;5075088;28;20031;-60
2023/08/01 10:17:11;;;;;;;1.25;0.65;;;;;;;;;;5074962;28;20071;-60
2023/08/01 10:19:38;;;;;;;1.33;0.47;;;;;;;;;;5075528;28;20070;-60
2023/08/01 10:22:04;;;;;;;1.02;0.50;;;;;;;;;;5074911;28;20025;-60
2023/08/01 10:24:31;;;;;;;0.80;0.45;;;;;;;;;;5074872;28;20064;-60
2023/08/01 10:26:57;;;;;;;1.35;0.63;;;;;;;;;;5074803;28;20104;-60
2023/08/01 10:29:34;;;;;;;1.70;0.68;;;;;;;;;;5074913;28;20060;-60
2023/08/01 10:32:00;;;;;;;1.48;0.55;;;;;;;;;;5075490;28;20056;-60
2023/08/01 10:34:26;;;;;;;1.55;0.75;;;;;;;;;;5074337;28;20032;-60
2023/08/01 10:36:58;;;;;;;1.85;0.55;;;;;;;;;;5074536;28;20052;-60
2023/08/01 10:39:25;;;;;;;1.33;0.60;;;;;;;;;;5075232;28;20028;-60
2023/08/01 10:42:01;;;;;;;0.93;0.43;;;;;;;;;;5074500;28;20028;-60
2023/08/01 10:44:28;;;;;;;1.30;0.40;;;;;;;;;;5074530;28;20032;-60
2023/08/01 10:47:00;;;;;;;0.82;0.40;;;;;;;;;;5075188;28;20385;-60
2023/08/01 10:49:39;;;;;;;0.98;0.30;;;;;;;;;;5074383;28;20048;-60
2023/08/01 10:52:17;;;;;;;1.20;0.60;;;;;;;;;;5073993;28;20482;-60
2023/08/01 10:54:43;;;;;;;0.88;0.30;;;;;;;;;;5075161;28;20031;-60
2023/08/01 10:57:08;;;;;;;1.33;0.60;;;;;;;;;;5073936;28;20461;-60
2023/08/01 10:59:35;;;;;;;1.23;0.50;;;;;;;;;;5074760;28;20528;-60
2023/08/01 11:02:01;;;;;;;0.95;0.30;;;;;;;;;;5074107;28;20020;-60
2023/08/01 11:04:27;;;;;;;0.40;0.20;;;;;;;;;;5074580;28;20033;-60
2023/08/01 11:06:56;;;;;;;0.80;0.40;;;;;;;;;;5074045;28;20023;-60
2023/08/01 11:09:22;;;;;;;0.77;0.40;;;;;;;;;;5074822;28;20028;-60
2023/08/01 11:11:55;;;;;;;0.75;0.38;;;;;;;;;;5074061;28;20496;-60
2023/08/01 11:14:25;;;;;;;1.08;0.40;;;;;;;;;;5074524;28;20392;-60
2023/08/01 11:16:51;;;;;;;1.48;0.47;;;;;;;;;;5073741;28;20017;-60
2023/08/01 11:19:21;;;;;;;0.98;0.47;;;;;;;;;;5074383;28;20443;-60
2023/08/01 11:21:47;;;;;;;1.80;0.52;;;;;;;;;;5073934;28;20056;-60
2023/08/01 11:24:13;;;;;;;0.52;0.30;;;;;;;;;;5074086;28;20039;-60
2023/08/01 11:26:43;;;;;;;1.00;0.40;;;;;;;;;;5074012;28;20020;-60
2023/08/01 11:29:09;;;;;;;1.50;0.52;;;;;;;;;;5074405;28;20028;-60
2023/08/01 11:31:35;;;;;;;1.52;0.70;;;;;;;;;;5073607;28;20024;-60
2023/08/01 11:34:01;;;;;;;1.45;0.60;;;;;;;;;;5073719;28;20071;-60
2023/08/01 11:36:28;;;;;;;0.80;0.30;;;;;;;;;;5073791;28;20084;-60
2023/08/01 11:38:54;;;;;;;1.30;0.60;;;;;;;;;;5074446;28;20017;-60
2023/08/01 11:41:20;;;;;;;1.55;0.60;;;;;;;;;;5073619;28;20059;-60
2023/08/01 11:43:46;;;;;;;1.63;0.60;;;;;;;;;;5074292;28;20060;-60
2023/08/01 11:46:13;;;;;;;0.85;0.40;;;;;;;;;;5073743;28;20032;-60
2023/08/01 11:48:39;;;;;;;1.70;0.60;;;;;;;;;;5073779;28;20485;-60
2023/08/01 11:51:05;;;;;;;1.58;0.63;;;;;;;;;;5073489;28;20028;-60
2023/08/01 11:53:37;;;;;;;1.25;0.57;;;;;;;;;;5073524;28;20360;-60
2023/08/01 11:56:04;;;;;;;0.98;0.50;;;;;;;;;;5073600;28;20603;-60
2023/08/01 11:58:30;;;;;;;1.15;0.50;;;;;;;;;;5073331;28;20025;-60
2023/08/01 12:01:06;;;;;;;1.50;0.82;;;;;;;;;;5073423;28;20024;-60
2023/08/01 12:03:33;;;;;;;1.67;0.75;;;;;;;;;;5073455;28;20366;-60
2023/08/01 12:06:09;;;;;;;1.10;0.50;;;;;;;;;;5055906;28;20023;-60
2023/08/01 12:08:35;;;;;;;1.10;0.40;;;;;;;;;;5073890;28;20016;-60
2023/08/01 12:11:02;;;;;;;1.80;0.80;;;;;;;;;;5073285;28;20451;-60
2023/08/01 12:13:28;;;;;;;1.27;0.63;;;;;;;;;;5073161;28;20016;-60
2023/08/01 12:15:56;;;;;;;1.23;0.60;;;;;;;;;;5073571;28;20021;-60
2023/08/01 12:18:28;;;;;;;1.52;0.73;;;;;;;;;;5073155;28;20025;-60
2023/08/01 12:20:54;;;;;;;1.27;0.63;;;;;;;;;;5073453;28;20025;-60
2023/08/01 12:23:21;;;;;;;2.15;0.82;;;;;;;;;;5073038;28;20399;-60
2023/08/01 12:25:47;;;;;;;1.10;0.50;;;;;;;;;;5076061;28;20052;-60
2023/08/01 12:28:16;;;;;;;1.40;0.63;;;;;;;;;;5077626;28;20033;-59
2023/08/01 12:30:42;;;;;;;3.40;0.63;;;;;;;;;;5077226;28;20027;-60
2023/08/01 12:33:08;;;;;;;2.05;0.88;;;;;;;;;;5077382;28;20021;-59
2023/08/01 12:35:34;;;;;;;1.15;0.43;;;;;;;;;;5076955;28;20021;-59
2023/08/01 12:38:00;;;;;;;1.25;0.68;;;;;;;;;;5077449;28;20036;-59
2023/08/01 12:40:26;;;;;;;3.72;0.77;;;;;;;;;;5077366;28;20019;-59
2023/08/01 12:42:52;;;;;;;1.33;0.65;;;;;;;;;;5077284;28;20028;-59
2023/08/01 12:45:19;;;;;;;1.60;0.65;;;;;;;;;;5077191;28;20465;-59
2023/08/01 12:47:45;;;;;;;1.45;0.70;;;;;;;;;;5076488;28;20067;-59
2023/08/01 12:50:11;;;;;;;1.08;0.68;;;;;;;;;;5077329;28;20020;-60
2023/08/01 12:52:36;;;;;;;1.85;0.70;;;;;;;;;;5076803;28;20077;-60
2023/08/01 12:55:02;;;;;;;2.35;0.98;;;;;;;;;;5076145;28;20028;-59
2023/08/01 12:57:28;;;;;;;0.90;0.47;;;;;;;;;;5076858;28;20028;-59
2023/08/01 12:59:54;;;;;;;4.35;0.80;;;;;;;;;;5076790;28;20513;-59
2023/08/01 13:02:20;;;;;;;1.60;0.70;;;;;;;;;;5076144;28;20020;-60
2023/08/01 13:04:46;;;;;;;1.98;0.63;;;;;;;;;;5076320;28;20039;-60
2023/08/01 13:07:12;;;;;;;6.47;1.02;;;;;;;;;;5076442;28;20103;-60
2023/08/01 13:09:38;;;;;;;1.48;0.77;;;;;;;;;;5076673;28;20017;-60
2023/08/01 13:12:04;;;;;;;1.20;0.60;;;;;;;;;;5076403;28;20386;-60
2023/08/01 13:14:32;;;;;;;1.60;0.75;;;;;;;;;;5075991;28;20025;-60
2023/08/01 13:16:59;;;;;;;1.77;0.60;;;;;;;;;;5075896;28;20374;-60
2023/08/01 13:19:25;;;;;;;1.42;0.65;;;;;;;;;;5076767;28;20111;-60
2023/08/01 13:21:51;;;;;;;2.53;0.80;;;;;;;;;;5076707;28;20037;-60
2023/08/01 13:24:16;;;;;;;1.90;0.75;;;;;;;;;;5076232;28;20474;-60
2023/08/01 13:26:42;;;;;;;0.93;0.50;;;;;;;;;;5076296;28;20110;-60
2023/08/01 13:29:08;;;;;;;1.60;0.80;;;;;;;;;;5076052;28;20043;-60
2023/08/01 13:31:34;;;;;;;1.25;0.45;;;;;;;;;;5076187;28;20402;-60
2023/08/01 13:34:00;;;;;;;0.95;0.50;;;;;;;;;;5075955;28;20028;-60
2023/08/01 13:36:26;;;;;;;2.15;0.93;;;;;;;;;;5074357;28;20052;-60
2023/08/01 13:38:52;;;;;;;2.75;0.52;;;;;;;;;;5075811;28;20056;-60
2023/08/01 13:41:18;;;;;;;1.80;0.70;;;;;;;;;;5076355;28;20031;-60
2023/08/01 13:43:44;;;;;;;1.58;0.60;;;;;;;;;;5076263;28;20363;-60
2023/08/01 13:46:13;;;;;;;1.85;0.75;;;;;;;;;;5076040;28;20020;-60
2023/08/01 13:48:39;;;;;;;0.80;0.40;;;;;;;;;;5076293;28;20112;-60
2023/08/01 13:51:05;;;;;;;2.22;0.95;;;;;;;;;;5075661;28;20116;-60
2023/08/01 13:53:31;;;;;;;0.88;0.40;;;;;;;;;;5076377;28;20407;-60
2023/08/01 13:55:57;;;;;;;1.10;0.50;;;;;;;;;;5075582;28;20358;-60
2023/08/01 13:58:23;;;;;;;7.47;1.00;;;;;;;;;;5075463;28;20020;-60
2023/08/01 14:00:49;;;;;;;1.85;0.95;;;;;;;;;;5075422;28;20077;-60
2023/08/01 14:03:14;;;;;;;2.00;0.70;;;;;;;;;;5075199;28;20097;-60
2023/08/01 14:05:40;;;;;;;1.27;0.60;;;;;;;;;;5075784;28;20032;-59
2023/08/01 14:08:06;;;;;;;1.30;0.70;;;;;;;;;;5075315;28;20020;-60
2023/08/01 14:10:32;;;;;;;1.73;0.80;;;;;;;;;;5075626;28;20028;-60
2023/08/01 14:12:58;;;;;;;1.15;0.50;;;;;;;;;;5075652;28;20056;-60
2023/08/01 14:15:24;;;;;;;1.20;0.50;;;;;;;;;;5075082;28;20059;-60
2023/08/01 14:17:52;;;;;;;2.58;0.90;;;;;;;;;;5075086;28;20021;-60
2023/08/01 14:20:18;;;;;;;1.52;0.68;;;;;;;;;;5075565;28;20044;-59
2023/08/01 14:22:44;;;;;;;1.83;0.82;;;;;;;;;;5075723;28;20032;-59
2023/08/01 14:25:10;;;;;;;1.42;0.60;;;;;;;;;;5075350;28;20029;-60
2023/08/01 14:27:36;;;;;;;1.73;0.52;;;;;;;;;;5074795;28;20066;-60
2023/08/01 14:30:03;;;;;;;1.50;0.88;;;;;;;;;;5075138;28;20074;-60
2023/08/01 14:32:29;;;;;;;1.45;0.70;;;;;;;;;;5074732;28;20082;-60
2023/08/01 14:34:55;;;;;;;1.88;0.43;;;;;;;;;;5075236;28;20036;-60
2023/08/01 14:37:23;;;;;;;2.28;1.05;;;;;;;;;;5074841;28;20101;-60
2023/08/01 14:39:50;;;;;;;1.48;0.80;;;;;;;;;;5075478;28;20073;-60